Terminal Aerodrome Forecast
Issued by NWS

Home | Current Version | Previous Version | Text Only | Print | Product List | Glossary On
Versions: 1 2 3 4 5 6 7 8 9 10 11 12 13 14 15 16 17 18 19 20
000
FTUS43 KPAH 291100 CCA
TAFCGI
TAF COR
KCGI 291145Z 2912/3012 00000KT 3SM BR SCT250
      TEMPO 2912/2913 1/2SM FG
     FM291400 20007KT P6SM SCT050
     FM300100 18004KT P6SM BKN100 PROB30 3007/3012 -TSRA BKN060CB=

USA.gov is the U.S. government's official web portal to all federal, state and local government web resources and services.